VSA weather

Carlos Rovirosa PĂ©rez International Airport
Villahermosa, Tabasco, Mexico

Public forecast

Using degrees Celsius for public forecast. Weather courtesy of forecast.io.

METAR (pilot weather report)

Retrieved 2019/04/23 02:43 UTC (48 minutes ago):

MMVA 230243Z 06006KT 7SM SKC 26/21 A2991 RMK SLP126 52024 967

TAF (pilot weather forecast)

Forecast is more than 6 hours old.

Retrieved 2019/04/22 18:57 UTC (9 hours ago):

TAF MMVA 221650Z 2218/2318 12010KT P6SM SKC FM231200 00000KT 4SM HZ FU SCT015